Flight Track Log - Related Links

Times and Time Zones

All times are in EDT time to prevent confusion due to time zone crossing. See the SWA1761 flight status page for this flight to view local times or setup timezone preferences in your user account.

Time Position Orientation Groundspeed Altitude Reporting Facility
EDT Latitude Longitude Course Direction KTS MPH feet Rate Location/Type
Fri 16:07:29 41.8167 -87.7333 196° South 210 242 3,300  Level Chicago TRACON
Fri 16:09:39 41.6986 -87.7744 195° South 254 292 10,000 3,063 Climbing Chicago Center
Fri 16:10:41 41.6347 -87.8303 213° Southwest 271 312 13,100 2,226 Climbing Chicago Center
Fri 16:11:43 41.5581 -87.8978 213° Southwest 333 383 14,600 2,496 Climbing Chicago Center
Fri 16:12:00 41.3321 -88.0422 196° South  Level FlightAware
Fri 16:12:46 41.4561 -87.9869 213° Southwest 363 418 18,300  Level Chicago Center
Fri 16:13:48 41.3769 -88.0450 209° Southwest 365 420 20,400 2,177 Climbing Chicago Center
Fri 16:14:50 41.2492 -88.0839 193° South 391 450 22,800 2,274 Climbing Chicago Center
Fri 16:15:52 41.1381 -88.1161 192° South 406 467 25,100 2,081 Climbing Chicago Center
Fri 16:16:54 41.0264 -88.1486 192° South 412 474 27,100 1,694 Climbing Chicago Center
Fri 16:17:56 40.9117 -88.1753 190° South 418 481 28,600 1,548 Climbing Chicago Center
Fri 16:18:58 40.7919 -88.2033 190° South 434 499 30,300 2,032 Climbing Chicago Center
Fri 16:20:00 40.6522 -88.2389 191° South 430 495 32,800 2,081 Climbing Chicago Center
Fri 16:21:02 40.5372 -88.2664 190° South 424 488 34,600 1,694 Climbing Chicago Center
Fri 16:22:04 40.4264 -88.2939 191° South 411 473 36,300 1,597 Climbing Chicago Center
Fri 16:23:06 40.3175 -88.3203 190° South 402 463 37,900 816 Climbing Chicago Center
Fri 16:24:09 40.2108 -88.3475 191° South 395 455 38,000 48 Climbing Chicago Center
Fri 16:25:11 40.0917 -88.3758 190° South 395 455 38,000  Level Chicago Center
Fri 16:26:07 39.9847 -88.3992 189° South 392 451 38,000  Level Kansas Center
Fri 16:27:09 39.8769 -88.4244 190° South 393 452 38,000  Level Kansas Center
Fri 16:28:11 39.7694 -88.4500 190° South 392 451 38,000  Level Kansas Center
Fri 16:29:13 39.6544 -88.4753 190° South 390 449 38,000  Level Kansas Center
Fri 16:30:15 39.5461 -88.5039 192° South 393 452 38,000  Level Kansas Center
Fri 16:31:17 39.4381 -88.5311 191° South 395 455 38,000  Level Kansas Center
Fri 16:32:19 39.3306 -88.5564 190° South 393 452 38,000  Level Kansas Center
Fri 16:33:21 39.2239 -88.5817 190° South 390 449 38,000  Level Kansas Center
Fri 16:34:23 39.1156 -88.6067 190° South 393 452 38,000  Level Kansas Center
Fri 16:35:25 39.0011 -88.6328 190° South 391 450 38,000  Level Kansas Center
Fri 16:36:27 38.8933 -88.6581 190° South 391 450 38,000  Level Kansas Center
Fri 16:37:29 38.7650 -88.6881 190° South 392 451 38,000  Level Kansas Center
Fri 16:38:31 38.6569 -88.7128 190° South 391 450 38,000  Level Kansas Center
Fri 16:39:33 38.5408 -88.7247 185° South 400 460 38,000  Level Kansas Center
Fri 16:40:35 38.4333 -88.7186 177° South 389 448 38,000  Level Kansas Center
Fri 16:41:37 38.3300 -88.7125 177° South 391 450 38,000  Level Kansas Center
Fri 16:42:39 38.2228 -88.7067 178° South 387 445 38,000  Level Kansas Center
Fri 16:43:41 38.1133 -88.7342 191° South 395 455 38,000  Level Kansas Center
Fri 16:44:43 37.9822 -88.7661 191° South 399 459 38,000  Level Kansas Center
Fri 16:45:45 37.8731 -88.7928 191° South 399 459 38,000  Level Kansas Center
Fri 16:46:47 37.7744 -88.8158 190° South 391 450 38,000  Level Kansas Center
Fri 16:47:49 37.6458 -88.8464 191° South 390 449 38,000  Level Kansas Center
Fri 16:48:51 37.5386 -88.8725 191° South 391 450 38,000  Level Kansas Center
Fri 16:49:56 37.4358 -88.9047 194° South 390 449 38,000  Level Memphis Center
Fri 16:50:56 37.3278 -88.9303 191° South 390 449 38,000  Level Memphis Center
Fri 16:51:56 37.2197 -88.9556 191° South 390 449 38,000  Level Memphis Center
Fri 16:52:56 37.1097 -88.9808 190° South 395 455 38,000  Level Memphis Center
Fri 16:53:56 37.0036 -89.0061 191° South 395 455 38,000  Level Memphis Center
Fri 16:54:56 36.8914 -89.0314 190° South 395 455 38,000  Level Memphis Center
Fri 16:55:56 36.7833 -89.0539 189° South 395 455 38,000  Level Memphis Center
Fri 16:56:56 36.6794 -89.0789 191° South 388 447 38,000  Level Memphis Center
Fri 16:57:56 36.5692 -89.1039 190° South 388 447 38,000  Level Memphis Center
Fri 16:58:56 36.4528 -89.1264 189° South 393 452 38,000  Level Memphis Center
Fri 16:59:56 36.3403 -89.1511 190° South 393 452 38,000  Level Memphis Center
Fri 17:00:56 36.2322 -89.1786 192° South 403 464 38,000  Level Memphis Center
Fri 17:01:56 36.1239 -89.2058 191° South 403 464 38,000  Level Memphis Center
Fri 17:02:56 36.0200 -89.2303 191° South 397 457 38,000  Level Memphis Center
Fri 17:03:56 35.9139 -89.2550 191° South 392 451 38,000  Level Memphis Center
Fri 17:04:56 35.8097 -89.2794 191° South 392 451 38,000  Level Memphis Center
Fri 17:05:56 35.6994 -89.3039 190° South 392 451 38,000  Level Memphis Center
Fri 17:06:56 35.6100 -89.3253 191° South 381 438 38,000  Level Memphis Center
Fri 17:07:56 35.5039 -89.3469 189° South 386 444 38,000  Level Memphis Center
Fri 17:08:56 35.3853 -89.3767 192° South 391 450 38,000  Level Memphis Center
Fri 17:09:56 35.2747 -89.4008 190° South 391 450 38,000  Level Memphis Center
Fri 17:10:56 35.1644 -89.4250 190° South 391 450 38,000  Level Memphis Center
Fri 17:11:56 35.0561 -89.4489 190° South 391 450 38,000  Level Memphis Center
Fri 17:12:56 34.9458 -89.4703 189° South 397 457 38,000  Level Memphis Center
Fri 17:13:56 34.8333 -89.4969 191° South 409 471 38,000  Level Memphis Center
Fri 17:14:56 34.7311 -89.5181 190° South 409 471 38,000  Level Memphis Center
Fri 17:15:56 34.6228 -89.5469 192° South 409 471 38,000  Level Memphis Center
Fri 17:16:56 34.5125 -89.5708 190° South 409 471 38,000  Level Memphis Center
Fri 17:17:56 34.4042 -89.5969 191° South 404 465 38,000  Level Memphis Center
Fri 17:18:56 34.2872 -89.6206 189° South 398 458 38,000  Level Memphis Center
Fri 17:19:56 34.1789 -89.6442 190° South 398 458 38,000  Level Memphis Center
Fri 17:20:56 34.0747 -89.6675 191° South 391 450 38,000  Level Memphis Center
Fri 17:21:56 33.9664 -89.6911 190° South 391 450 38,000  Level Memphis Center
Fri 17:22:56 33.8600 -89.7169 191° South 391 450 38,000 -150 Level Memphis Center
Fri 17:23:56 33.7664 -89.7400 192° South 391 450 37,700 -500 Descending Memphis Center
Fri 17:24:56 33.6600 -89.7633 190° South 391 450 37,000 -350 Descending Memphis Center
Fri 17:25:56 33.5536 -89.7864 190° South 391 450 37,000  Level Memphis Center
Fri 17:26:56 33.4431 -89.8094 190° South 391 450 37,000  Level Memphis Center
Fri 17:27:56 33.3367 -89.8325 190° South 391 450 37,000  Level Memphis Center
Fri 17:28:00 33.3317 -89.8237 190° South  Level FlightAware
Fri 17:28:56 33.2283 -89.8556 190° South 391 450 37,000  Level Memphis Center
Fri 17:29:56 33.1197 -89.8786 190° South 391 450 37,000  Level Memphis Center
Fri 17:30:56 33.0008 -89.9039 190° South 391 450 37,000  Level Memphis Center
Fri 17:31:56 32.8986 -89.9217 188° South 402 463 37,000  Level Memphis Center
Fri 17:32:56 32.7778 -89.9519 192° South 402 463 37,000  Level Memphis Center
Fri 17:33:56 32.6692 -89.9747 190° South 407 468 37,000  Level Memphis Center
Fri 17:34:56 32.5608 -89.9975 190° South 407 468 37,000  Level Memphis Center
Fri 17:35:56 32.4544 -90.0200 190° South 407 468 37,000  Level Memphis Center
Fri 17:36:56 32.3417 -90.0425 190° South 407 468 37,000  Level Memphis Center
Fri 17:37:56 32.2311 -90.0650 190° South 407 468 37,000 -200 Level Memphis Center
Fri 17:38:56 32.1225 -90.0900 191° South 407 468 36,600 -750 Descending Memphis Center
Fri 17:39:56 32.0119 -90.1100 189° South 407 468 35,500 -2,224 Descending Memphis Center
Fri 17:41:46 31.8267 -90.1489 190° South 412 474 30,300 -2,616 Descending Houston Center
Fri 17:42:48 31.6969 -90.1769 190° South 398 458 28,000 -1,113 Descending Houston Center
Fri 17:43:50 31.5911 -90.1878 185° South 388 447 28,000  Level Houston Center
Fri 17:44:53 31.4792 -90.1881 180° South 400 460 28,000 -336 Level Houston Center
Fri 17:45:55 31.3686 -90.1903 181° South 398 458 27,300 -1,403 Descending Houston Center
Fri 17:46:57 31.2614 -90.1908 180° South 390 449 25,100 -2,274 Descending Houston Center
Fri 17:47:59 31.1367 -90.1936 181° South 376 433 22,600 -2,226 Descending Houston Center
Fri 17:49:01 31.0369 -90.1947 181° South 363 418 20,500 -1,984 Descending Houston Center
Fri 17:50:03 30.9400 -90.1961 181° South 352 405 18,500 -1,935 Descending Houston Center
Fri 17:51:05 30.8436 -90.1981 181° South 348 400 16,500 -2,163 Descending Houston Center
Fri 17:51:29 30.7892 -90.1992 181° South 346 398 15,400 -2,032 Descending Houston Center
Fri 17:52:07 30.7472 -90.1989 180° South 348 400 14,400 -2,051 Descending Houston Center
Fri 17:52:48 30.6639 -90.1994 180° South 347 399 12,700 -2,323 Descending Houston Center
Fri 17:53:09 30.6325 -90.2011 183° South 345 397 12,000 -1,814 Descending Houston Center
Fri 17:53:31 30.5972 -90.2022 182° South 345 397 11,400 -1,524 Descending Houston Center
Fri 17:54:12 30.5397 -90.2033 181° South 340 391 10,400 -1,180 Descending Houston Center
Fri 17:54:32 30.5075 -90.2058 184° South 322 371 10,200 -581 Descending Houston Center
Fri 17:55:14 30.4581 -90.2081 182° South 307 353 9,800 -1,096 Descending Houston Center
Fri 17:56:16 30.3847 -90.2058 179° South 276 318 8,300 -1,653 Descending Houston Center
Fri 17:56:52 30.3317 -90.1961 171° South 273 314 7,100 -1,548 Descending Houston Center
Fri 17:57:18 30.3108 -90.1869 159° South 289 333 6,700 -1,333 Descending Houston Center
Fri 17:57:46 30.2639 -90.1678 161° South 276 318 5,900 -1,645 Descending Houston Center
Fri 17:58:20 30.2275 -90.1489 156° South 275 316 5,000 -1,433 Descending Houston Center
Fri 17:58:53 30.1897 -90.1347 162° South 270 311 4,300 -968 Descending Houston Center
Fri 17:59:22 30.1575 -90.1189 157° South 271 312 4,000 -295 Descending Houston Center
Fri 17:59:54 30.1175 -90.1017 160° South 269 310 4,000 -97 Level Houston Center
Fri 18:00:24 30.0881 -90.0883 159° South 270 311 3,900 -457 Descending Houston Center
Fri 18:01:26 30.0250 -90.0917 183° South 247 284 3,300 -928 Descending Houston Center
Fri 18:02:01 29.9817 -90.0978 187° South 209 241 2,400 -1,083 Descending Houston Center
Fri 18:02:38 29.9594 -90.1203 221° Southwest 184 212 2,000 -600 Descending Houston Center
Fri 18:03:31 29.9675 -90.1617 283° West 176 203 1,500 -574 Descending Houston Center
Fri 18:04:33 29.9778 -90.2011 287° West 148 170 900 -600 Descending Houston Center
Fri 18:04:51 29.9789 -90.2131 276° West 116 133 700 -387 Descending Houston Center
Fri 18:05:35 29.9861 -90.2339 292° West 137 158 500 -273 Descending Houston Center

Login

Don't have an account? Register now (free) for customized features, flight alerts, and more!